createdAt,value
2023-01-20T00:04:11.429Z,99279.81
2023-01-20T00:09:17.447Z,99287.03
2023-01-20T00:14:19.059Z,99290.69
2023-01-20T00:19:23.228Z,99296.47
2023-01-20T00:24:25.141Z,99306.09
2023-01-20T00:29:26.894Z,99293.66
2023-01-20T00:34:28.640Z,99308.28
2023-01-20T00:39:30.322Z,99327.94
2023-01-20T00:44:32.175Z,99328.47
2023-01-20T00:49:33.836Z,99347.78
2023-01-20T00:54:35.678Z,99361.69
2023-01-20T00:59:37.560Z,99366.22
2023-01-20T01:04:39.203Z,99371.97
2023-01-20T01:09:40.873Z,99366.16
2023-01-20T01:14:42.498Z,99357.56
2023-01-20T01:19:44.107Z,99359.53
2023-01-20T01:24:45.710Z,99365.44
2023-01-20T01:29:47.371Z,99365.31
2023-01-20T01:34:48.992Z,99353.59
2023-01-20T01:39:50.716Z,99359.75
2023-01-20T01:45:10.803Z,99341.84
2023-01-20T01:50:20.509Z,99336.63
2023-01-20T01:55:27.477Z,99338.22
2023-01-20T02:00:29.675Z,99330.22
2023-01-20T02:05:32.295Z,99330.97
2023-01-20T02:10:34.067Z,99322.66
2023-01-20T02:15:58.673Z,99322.06
2023-01-20T02:21:37.579Z,99329.28
2023-01-20T02:26:53.356Z,99337.53
2023-01-20T02:32:19.213Z,99337.44
2023-01-20T02:37:28.634Z,99338.84
2023-01-20T02:42:48.851Z,99338.00
2023-01-20T02:48:12.584Z,99345.16
2023-01-20T02:53:16.867Z,99339.88
2023-01-20T02:58:52.775Z,99335.88
2023-01-20T03:03:58.426Z,99346.59
2023-01-20T03:09:02.363Z,99343.41
2023-01-20T03:14:13.734Z,99336.84
2023-01-20T03:19:20.205Z,99329.22
2023-01-20T03:24:23.205Z,99327.63
2023-01-20T03:29:24.920Z,99320.91
2023-01-20T03:34:30.039Z,99321.94
2023-01-20T03:39:32.711Z,99318.59
2023-01-20T03:45:09.441Z,99315.44
2023-01-20T03:50:47.907Z,99316.81
2023-01-20T03:56:02.560Z,99315.75
2023-01-20T04:01:18.439Z,99314.44
2023-01-20T04:06:24.958Z,99316.91
2023-01-20T04:11:27.909Z,99328.94
2023-01-20T04:16:29.772Z,99338.97
2023-01-20T04:21:39.332Z,99347.50
2023-01-20T04:26:41.157Z,99359.97
2023-01-20T04:31:42.869Z,99378.78
2023-01-20T04:36:44.717Z,99372.91
2023-01-20T04:41:47.441Z,99368.00
2023-01-20T04:46:49.289Z,99362.31
2023-01-20T04:51:50.905Z,99380.50
2023-01-20T04:56:52.491Z,99398.03
2023-01-20T05:01:54.477Z,99414.22
2023-01-20T05:06:56.399Z,99424.25
2023-01-20T05:11:58.067Z,99429.31
2023-01-20T05:16:59.811Z,99435.91
2023-01-20T05:22:02.367Z,99438.25
2023-01-20T05:27:04.092Z,99445.16
2023-01-20T05:32:05.722Z,99447.38
2023-01-20T05:37:07.385Z,99439.34
2023-01-20T05:42:09.037Z,99445.16
2023-01-20T05:47:10.691Z,99441.75
2023-01-20T05:52:12.387Z,99444.28
2023-01-20T05:57:18.162Z,99445.38
2023-01-20T06:02:20.320Z,99450.63
2023-01-20T06:07:22.018Z,99444.59
2023-01-20T06:12:23.897Z,99427.41
2023-01-20T06:17:25.640Z,99431.94
2023-01-20T06:22:27.660Z,99416.44
2023-01-20T06:27:29.257Z,99419.13
2023-01-20T06:32:30.856Z,99430.91
2023-01-20T06:37:32.674Z,99431.84
2023-01-20T06:42:34.304Z,99445.09
2023-01-20T06:47:36.250Z,99438.50
2023-01-20T06:52:37.845Z,99436.19
2023-01-20T06:57:39.431Z,99432.63
2023-01-20T07:02:41.313Z,99444.28
2023-01-20T07:07:46.037Z,99440.78
2023-01-20T07:12:47.677Z,99440.78
2023-01-20T07:17:49.288Z,99451.88
2023-01-20T07:22:50.917Z,99442.06
2023-01-20T07:27:53.171Z,99435.41
2023-01-20T07:32:54.768Z,99455.22
2023-01-20T07:37:56.619Z,99460.53
2023-01-20T07:42:58.242Z,99465.53
2023-01-20T07:48:00.140Z,99473.47
2023-01-20T07:53:02.019Z,99469.22
2023-01-20T07:58:03.640Z,99468.53
2023-01-20T08:03:05.297Z,99479.59
2023-01-20T08:08:07.203Z,99478.97
2023-01-20T08:13:09.217Z,99492.56
2023-01-20T08:18:11.067Z,99497.78
2023-01-20T08:23:13.014Z,99490.66
2023-01-20T08:28:14.728Z,99503.16
2023-01-20T08:33:16.322Z,99522.59
2023-01-20T08:38:18.167Z,99525.63
2023-01-20T08:43:19.783Z,99515.88
2023-01-20T08:48:21.510Z,99531.00
2023-01-20T08:53:23.137Z,99526.59
2023-01-20T08:58:25.588Z,99529.00
2023-01-20T09:03:27.519Z,99527.59
2023-01-20T09:08:29.655Z,99544.19
2023-01-20T09:13:31.425Z,99541.06
2023-01-20T09:18:34.578Z,99541.84
2023-01-20T09:23:39.075Z,99553.09
2023-01-20T09:28:44.525Z,99563.78
2023-01-20T09:33:46.127Z,99556.25
2023-01-20T09:39:06.280Z,99570.03
2023-01-20T09:44:42.413Z,99570.94
2023-01-20T09:50:09.885Z,99577.91
2023-01-20T09:55:21.566Z,99565.44
2023-01-20T10:00:26.187Z,99558.84
2023-01-20T10:05:35.652Z,99558.38
2023-01-20T10:10:44.146Z,99560.72
2023-01-20T10:15:54.216Z,99551.72
2023-01-20T10:20:58.720Z,99546.66
2023-01-20T10:26:17.095Z,99537.66
2023-01-20T10:31:27.843Z,99529.81
2023-01-20T10:36:30.950Z,99511.78
2023-01-20T10:41:45.638Z,99506.19
2023-01-20T10:47:13.629Z,99504.06
2023-01-20T10:52:46.661Z,99507.09
2023-01-20T10:57:54.678Z,99498.38
2023-01-20T11:03:00.058Z,99490.59
2023-01-20T11:08:03.624Z,99478.88
2023-01-20T11:13:05.529Z,99471.56
2023-01-20T11:18:16.584Z,99466.75
2023-01-20T11:23:42.088Z,99472.28
2023-01-20T11:28:50.746Z,99462.56
2023-01-20T11:33:56.684Z,99468.69
2023-01-20T11:38:58.355Z,99459.66
2023-01-20T11:44:00.870Z,99461.31
2023-01-20T11:49:22.033Z,99442.84
2023-01-20T11:54:26.202Z,99445.38
2023-01-20T11:59:30.353Z,99446.38
2023-01-20T12:04:50.807Z,99446.78
2023-01-20T12:09:59.362Z,99465.94
2023-01-20T12:15:10.718Z,99461.91
2023-01-20T12:20:24.221Z,99466.06
2023-01-20T12:25:30.605Z,99460.97
2023-01-20T12:30:41.309Z,99458.66
2023-01-20T12:36:00.958Z,99456.72
2023-01-20T12:41:13.629Z,99452.13
2023-01-20T12:46:18.170Z,99454.22
2023-01-20T12:52:05.654Z,99450.53
2023-01-20T12:57:19.589Z,99446.78
2023-01-20T13:02:24.145Z,99438.03
2023-01-20T13:07:48.344Z,99446.63
2023-01-20T13:13:03.953Z,99431.41
2023-01-20T13:18:17.835Z,99439.44
2023-01-20T13:23:36.903Z,99447.69
2023-01-20T13:28:38.451Z,99460.19
2023-01-20T13:33:41.819Z,99451.75
2023-01-20T13:38:44.548Z,99454.28
2023-01-20T13:43:48.283Z,99461.78
2023-01-20T13:49:20.966Z,99466.75
2023-01-20T13:54:25.450Z,99474.50
2023-01-20T13:59:27.246Z,99480.31
2023-01-20T14:04:28.891Z,99485.38
2023-01-20T14:09:30.493Z,99488.03
2023-01-20T14:14:32.300Z,99481.13
2023-01-20T14:19:37.262Z,99478.72
2023-01-20T14:24:47.878Z,99468.28
2023-01-20T14:29:52.277Z,99491.00
2023-01-20T14:34:54.878Z,99500.38
2023-01-20T14:39:59.458Z,99489.88
2023-01-20T14:45:01.157Z,99493.38
2023-01-20T14:50:03.029Z,99488.13
2023-01-20T14:55:05.110Z,99484.88
2023-01-20T15:00:19.258Z,99498.09
2023-01-20T15:05:31.854Z,99507.69
2023-01-20T15:10:33.722Z,99515.91
2023-01-20T15:15:35.414Z,99523.56
2023-01-20T15:20:43.987Z,99527.41
2023-01-20T15:25:46.132Z,99541.63
2023-01-20T15:30:47.823Z,99546.78
2023-01-20T15:36:00.649Z,99560.09
2023-01-20T15:41:02.305Z,99573.16
2023-01-20T15:46:10.821Z,99572.47
2023-01-20T15:51:15.141Z,99573.16
2023-01-20T15:56:25.198Z,99571.69
2023-01-20T16:01:29.037Z,99572.34
2023-01-20T16:06:33.263Z,99592.19
2023-01-20T16:11:35.119Z,99598.91
2023-01-20T16:16:37.008Z,99596.28
2023-01-20T16:21:38.808Z,99589.72
2023-01-20T16:26:42.947Z,99579.22
2023-01-20T16:31:44.682Z,99579.97
2023-01-20T16:36:46.313Z,99591.72
2023-01-20T16:41:49.855Z,99587.47
2023-01-20T16:46:51.506Z,99590.75
2023-01-20T16:51:53.123Z,99584.88
2023-01-20T16:56:54.713Z,99594.09
2023-01-20T17:01:56.411Z,99590.75
2023-01-20T17:06:58.051Z,99610.69
2023-01-20T17:11:59.692Z,99613.19
2023-01-20T17:17:01.353Z,99608.13
2023-01-20T17:22:03.036Z,99604.78
2023-01-20T17:27:04.698Z,99620.72
2023-01-20T17:32:06.626Z,99628.53
2023-01-20T17:37:08.252Z,99621.75
2023-01-20T17:42:09.853Z,99638.59
2023-01-20T17:47:12.183Z,99629.28
2023-01-20T17:52:13.851Z,99627.56
2023-01-20T17:57:15.507Z,99631.56
2023-01-20T18:02:18.735Z,99622.63
2023-01-20T18:07:20.427Z,99627.56
2023-01-20T18:12:22.228Z,99625.03
2023-01-20T18:17:24.061Z,99619.22
2023-01-20T18:22:25.790Z,99623.34
2023-01-20T18:27:27.590Z,99628.44
2023-01-20T18:32:29.451Z,99630.47
2023-01-20T18:37:32.466Z,99625.63
2023-01-20T18:42:34.079Z,99630.84
2023-01-20T18:47:35.881Z,99639.88
2023-01-20T18:52:37.783Z,99630.56
2023-01-20T18:57:39.600Z,99625.50
2023-01-20T19:02:41.341Z,99624.84
2023-01-20T19:07:48.521Z,99617.25
2023-01-20T19:12:51.799Z,99614.78
2023-01-20T19:17:53.478Z,99612.06
2023-01-20T19:22:55.106Z,99616.25
2023-01-20T19:27:56.879Z,99617.69
2023-01-20T19:32:58.487Z,99615.59
2023-01-20T19:38:00.211Z,99626.16
2023-01-20T19:43:01.865Z,99610.00
2023-01-20T19:48:03.947Z,99621.94
2023-01-20T19:53:05.564Z,99615.91
2023-01-20T19:58:07.160Z,99623.16
2023-01-20T20:03:08.976Z,99625.00
2023-01-20T20:08:10.580Z,99634.00
2023-01-20T20:13:12.213Z,99633.16
2023-01-20T20:18:13.896Z,99644.69
2023-01-20T20:23:17.881Z,99651.22
2023-01-20T20:28:19.788Z,99654.22
2023-01-20T20:33:23.170Z,99659.44
2023-01-20T20:38:25.030Z,99650.81
2023-01-20T20:43:28.019Z,99658.19
2023-01-20T20:48:30.372Z,99667.97
2023-01-20T20:53:32.179Z,99685.41
2023-01-20T20:58:34.475Z,99684.28
2023-01-20T21:03:36.092Z,99707.31
2023-01-20T21:08:39.125Z,99706.25
2023-01-20T21:13:42.909Z,99711.06
2023-01-20T21:18:44.523Z,99723.25
2023-01-20T21:23:52.060Z,99730.69
2023-01-20T21:28:54.061Z,99723.53
2023-01-20T21:33:59.440Z,99729.19
2023-01-20T21:39:01.164Z,99731.34
2023-01-20T21:44:21.330Z,99722.94
2023-01-20T21:49:41.782Z,99726.09
2023-01-20T21:54:45.128Z,99738.97
2023-01-20T21:59:47.160Z,99743.81
2023-01-20T22:04:48.838Z,99751.56
2023-01-20T22:09:50.655Z,99753.44
2023-01-20T22:14:52.477Z,99742.00
2023-01-20T22:19:54.486Z,99742.47
2023-01-20T22:24:56.383Z,99751.38
2023-01-20T22:29:58.183Z,99742.78
2023-01-20T22:34:59.808Z,99727.97
2023-01-20T22:40:02.113Z,99732.97
2023-01-20T22:45:04.199Z,99732.69
2023-01-20T22:50:07.869Z,99730.31
2023-01-20T22:55:09.664Z,99737.66
2023-01-20T23:00:12.193Z,99738.78
2023-01-20T23:05:14.062Z,99739.13
2023-01-20T23:10:35.764Z,99742.69
2023-01-20T23:15:37.571Z,99744.31
2023-01-20T23:20:39.576Z,99739.19
2023-01-20T23:25:41.453Z,99733.25
2023-01-20T23:30:43.592Z,99734.03
2023-01-20T23:35:45.228Z,99730.84
2023-01-20T23:40:50.113Z,99726.75
2023-01-20T23:45:51.875Z,99741.91
2023-01-20T23:50:54.765Z,99743.69
2023-01-20T23:56:01.330Z,99737.41
